Snow/Ice From: 16-12-2017 16:00 Until: 17-12-2017 16:00 warning for: Snow/Ice Level: Yellow info button

Although rather usual in this region, locally or potentially dangerous phenomena are expected. (such as local winds, summer thunderstorms, rising streams or high waves) Be aware and pay attention to the latest weather updates, especially if you carry out activities exposed to weather or close to a stream or shoreline. 


Meteo18 Weather Cam more information Meteo18 Weather Cam


Thunder radar more information blitzortung!


warning for Snow/Ice more information rain snow radar


Visit our other weather sites:

Template documentation
and downloads

And another site



Weather Underground History page Text

Daily Summary for July 6, 2017 Units:  English    Metric   Both
« Previous Day
Next Day »
Daily Weekly Monthly Yearly Custom
  High: Low: Average:
Temperature: 94.3 °F 63.7 °F 79.3 °F
Dew Point: 65.5 °F 56.8 °F 61.5 °F
Humidity: 86 % 33 % 58 %
Wind Speed: 8 mph 0 mph 1.7 mph
Wind Gust: 11 mph - -
Wind:- - South
Pressure: 30.1 in 30 in -
Precipitation: 0 in    
Historical Graphs
 
 
Tabular Data for July 6, 2017
Time Temperature Dew Point Pressure Wind Wind Speed Wind Gust Humidity Rainfall Rate (Hourly)
00:02 73.2 °F 61.5 °F 30 in NNE 2 mph 2 mph 67 % 0 in
00:07 73.2 °F 62.1 °F 30 in North 1 mph 2 mph 68 % 0 in
00:12 72.9 °F 62.1 °F 30 in North 2 mph 2 mph 69 % 0 in
00:17 72.7 °F 61.5 °F 30 in NNE 2 mph 3 mph 68 % 0 in
00:22 72.9 °F 61.7 °F 30 in Calm   3 mph 68 % 0 in
00:27 72.7 °F 61.5 °F 30 in NNE 3 mph 3 mph 68 % 0 in
00:32 72 °F 61.7 °F 30 in North 1 mph 3 mph 70 % 0 in
00:42 71.6 °F 61.3 °F 30 in North 1 mph 3 mph 70 % 0 in
00:47 71.8 °F 61.5 °F 30 in NNW 1 mph 2 mph 70 % 0 in
00:52 71.4 °F 61.2 °F 30 in NW 2 mph 3 mph 70 % 0 in
00:57 70.7 °F 61.2 °F 30 in NW 1 mph 3 mph 72 % 0 in
01:02 70.3 °F 61.3 °F 30 in NW 1 mph 3 mph 73 % 0 in
01:07 70.5 °F 61 °F 30 in Calm   2 mph 72 % 0 in
01:12 70.5 °F 60.6 °F 30 in Calm   2 mph 71 % 0 in
01:17 70.2 °F 61.2 °F 30 in Calm   2 mph 73 % 0 in
01:22 69.6 °F 60.6 °F 30 in NW 2 mph 2 mph 73 % 0 in
01:27 69.6 °F 60.6 °F 30 in Calm   2 mph 73 % 0 in
01:32 69.6 °F 60.6 °F 30 in Calm   2 mph 73 % 0 in
01:37 69.6 °F 61 °F 30 in Calm   2 mph 74 % 0 in
01:42 69.4 °F 61.2 °F 30 in North 1 mph 2 mph 75 % 0 in
01:47 69.1 °F 61.2 °F 30 in Calm   2 mph 76 % 0 in
01:52 68.7 °F 60.8 °F 30 in Calm   2 mph 76 % 0 in
01:57 68.4 °F 60.8 °F 30 in Calm   2 mph 77 % 0 in
02:02 68 °F 60.8 °F 30 in Calm   1 mph 78 % 0 in
02:07 67.6 °F 61 °F 30 in Calm   1 mph 79 % 0 in
02:12 67.5 °F 60.4 °F 30 in Calm     78 % 0 in
02:17 67.6 °F 60.6 °F 30 in Calm   1 mph 78 % 0 in
02:22 67.6 °F 60.6 °F 30 in Calm   1 mph 78 % 0 in
02:27 67.5 °F 60.8 °F 30 in Calm   1 mph 79 % 0 in
02:32 67.3 °F 60.6 °F 30 in Calm     79 % 0 in
02:37 66.9 °F 60.3 °F 30 in Calm     79 % 0 in
02:42 66.6 °F 60.3 °F 30 in Calm     80 % 0 in
02:47 66.4 °F 60.4 °F 30 in Calm     81 % 0 in
02:52 66.6 °F 60.3 °F 30 in Calm     80 % 0 in
02:57 66.9 °F 60.3 °F 30 in Calm     79 % 0 in
03:02 67.3 °F 60.3 °F 30 in Calm     78 % 0 in
03:07 66.9 °F 60.3 °F 30 in Calm     79 % 0 in
03:12 66.6 °F 59.9 °F 30 in Calm     79 % 0 in
03:17 66.4 °F 60.1 °F 30 in Calm   1 mph 80 % 0 in
03:22 65.8 °F 59.9 °F 30 in Calm   1 mph 81 % 0 in
03:27 65.5 °F 59.9 °F 30 in Calm   1 mph 82 % 0 in
03:32 65.1 °F 59.5 °F 30 in Calm     82 % 0 in
03:37 64.9 °F 59.7 °F 30 in Calm     83 % 0 in
03:42 64.9 °F 59.7 °F 30 in Calm     83 % 0 in
03:47 64.9 °F 59.7 °F 30 in Calm     83 % 0 in
03:52 64.9 °F 59.7 °F 30 in Calm     83 % 0 in
03:57 64.9 °F 59.7 °F 30 in Calm     83 % 0 in
04:02 64.9 °F 59.9 °F 30 in Calm     84 % 0 in
04:07 64.8 °F 59.9 °F 30 in Calm     84 % 0 in
04:12 64.8 °F 59.9 °F 30 in Calm     84 % 0 in
04:17 64.6 °F 59.7 °F 30 in Calm     84 % 0 in
04:22 64.2 °F 59.5 °F 30 in Calm     85 % 0 in
04:27 64 °F 59.4 °F 30 in Calm     85 % 0 in
04:32 64.6 °F 59.9 °F 30 in Calm     85 % 0 in
04:37 64.8 °F 59.9 °F 30 in Calm     84 % 0 in
04:42 64.9 °F 59.9 °F 30 in Calm     84 % 0 in
04:47 64.6 °F 59.7 °F 30 in Calm     84 % 0 in
04:52 64.6 °F 59.9 °F 30 in Calm     85 % 0 in
04:57 64.8 °F 59.9 °F 30 in Calm     84 % 0 in
05:02 64.8 °F 59.9 °F 30 in Calm     84 % 0 in
05:12 64.2 °F 59.4 °F 30 in Calm     84 % 0 in
05:17 63.7 °F 59.4 °F 30 in Calm     86 % 0 in
05:22 63.9 °F 59.5 °F 30 in Calm     86 % 0 in
05:27 64 °F 59.7 °F 30 in Calm     86 % 0 in
05:32 64.8 °F 59.9 °F 30 in Calm     84 % 0 in
05:37 64.6 °F 59.7 °F 30 in Calm     84 % 0 in
05:42 64.4 °F 59.5 °F 30 in Calm     84 % 0 in
05:47 64 °F 59.4 °F 30 in Calm     85 % 0 in
05:52 64.6 °F 59.9 °F 30 in Calm     85 % 0 in
05:57 64.9 °F 59.9 °F 30 in Calm     84 % 0 in
06:02 64.8 °F 59.9 °F 30 in Calm     84 % 0 in
06:07 64.4 °F 59.7 °F 30 in Calm     85 % 0 in
06:12 64.6 °F 59.9 °F 30 in Calm     85 % 0 in
06:17 64.4 °F 59.7 °F 30.1 in Calm     85 % 0 in
06:22 64.2 °F 59.5 °F 30.1 in Calm     85 % 0 in
06:27 64.2 °F 59.9 °F 30.1 in Calm     86 % 0 in
06:32 64.6 °F 60.3 °F 30.1 in Calm     86 % 0 in
06:37 65.1 °F 60.1 °F 30.1 in Calm     84 % 0 in
06:42 65.1 °F 60.1 °F 30.1 in Calm     84 % 0 in
06:52 64.8 °F 59.9 °F 30 in Calm     84 % 0 in
07:02 64.8 °F 60.1 °F 30.1 in Calm     85 % 0 in
07:07 65.1 °F 60.4 °F 30.1 in Calm     85 % 0 in
07:12 65.7 °F 60.6 °F 30.1 in Calm     84 % 0 in
07:17 66.6 °F 61.5 °F 30.1 in Calm     84 % 0 in
07:22 67.3 °F 61.2 °F 30.1 in Calm     81 % 0 in
07:27 67.8 °F 61.7 °F 30.1 in Calm   2 mph 81 % 0 in
07:32 68.5 °F 62.8 °F 30.1 in SW 1 mph 2 mph 82 % 0 in
07:37 69.1 °F 63.3 °F 30.1 in Calm   2 mph 82 % 0 in
07:42 69.1 °F 63 °F 30.1 in Calm   1 mph 81 % 0 in
07:47 69.4 °F 63 °F 30.1 in Calm   1 mph 80 % 0 in
07:52 70.2 °F 63.7 °F 30.1 in Calm   1 mph 80 % 0 in
07:57 71.2 °F 63.7 °F 30.1 in Calm     77 % 0 in
08:02 71.6 °F 63 °F 30.1 in Calm     74 % 0 in
08:07 71.4 °F 63.1 °F 30.1 in Calm   1 mph 75 % 0 in
08:12 71.8 °F 63 °F 30.1 in Calm   1 mph 74 % 0 in
08:17 71.2 °F 63 °F 30.1 in Calm   1 mph 75 % 0 in
08:22 70.9 °F 63.3 °F 30.1 in Calm     77 % 0 in
08:27 71.1 °F 63.1 °F 30.1 in Calm     76 % 0 in
08:32 71.4 °F 63.9 °F 30.1 in SE 1 mph   77 % 0 in
08:42 71.4 °F 63.1 °F 30.1 in SE 1 mph 1 mph 75 % 0 in
08:52 73 °F 63.9 °F 30.1 in Calm   1 mph 73 % 0 in
08:57 73.9 °F 64.4 °F 30.1 in SE 1 mph 2 mph 72 % 0 in
09:02 74.3 °F 63.9 °F 30.1 in ENE 1 mph 2 mph 70 % 0 in
09:07 74.7 °F 64.6 °F 30.1 in SE 1 mph 3 mph 71 % 0 in
09:12 75.4 °F 64.6 °F 30.1 in South 2 mph 3 mph 69 % 0 in
09:17 75 °F 64.2 °F 30.1 in Calm   3 mph 69 % 0 in
09:22 75.4 °F 64 °F 30.1 in SW 2 mph 4 mph 68 % 0 in
09:27 75.6 °F 64.2 °F 30.1 in Calm   4 mph 68 % 0 in
09:32 76.1 °F 64.8 °F 30.1 in SSW 2 mph 3 mph 68 % 0 in
09:37 76.3 °F 64.9 °F 30.1 in South 1 mph 3 mph 68 % 0 in
09:42 76.6 °F 64.4 °F 30.1 in SW 1 mph 3 mph 66 % 0 in
09:47 77.4 °F 64.8 °F 30.1 in Calm   3 mph 65 % 0 in
09:52 77.9 °F 64.2 °F 30.1 in South 2 mph 3 mph 63 % 0 in
09:57 78.4 °F 64.4 °F 30.1 in WSW 2 mph 4 mph 62 % 0 in
10:02 79.2 °F 64 °F 30.1 in SW 5 mph 5 mph 60 % 0 in
10:07 79.2 °F 64 °F 30.1 in SW 3 mph 6 mph 60 % 0 in
10:12 79.2 °F 63.1 °F 30.1 in SW 3 mph 6 mph 58 % 0 in
10:17 79.2 °F 61.5 °F 30.1 in SW 3 mph 6 mph 55 % 0 in
10:22 79.7 °F 61.5 °F 30.1 in SW 2 mph 6 mph 54 % 0 in
10:27 80.4 °F 57.7 °F 30.1 in SW 6 mph 7 mph 46 % 0 in
10:32 80.8 °F 56.8 °F 30.1 in West 3 mph 8 mph 44 % 0 in
10:42 80.8 °F 58.1 °F 30.1 in SW 3 mph 10 mph 46 % 0 in
10:47 80.8 °F 58.6 °F 30.1 in SW 3 mph 10 mph 47 % 0 in
11:17 82.9 °F 60.1 °F 30.1 in West 4 mph 8 mph 46 % 0 in
11:27 83.5 °F 58.6 °F 30.1 in SW 4 mph 8 mph 43 % 0 in
11:32 83.8 °F 59 °F 30.1 in Calm   8 mph 43 % 0 in
11:37 84.2 °F 59.4 °F 30.1 in WSW 2 mph 8 mph 43 % 0 in
11:42 84.4 °F 60.1 °F 30.1 in WSW 5 mph 7 mph 44 % 0 in
11:47 84.6 °F 62.8 °F 30.1 in SSW 4 mph 7 mph 48 % 0 in
11:52 84.7 °F 60.4 °F 30.1 in West 5 mph 6 mph 44 % 0 in
11:57 84.9 °F 61.9 °F 30.1 in South 5 mph 7 mph 46 % 0 in
12:02 85.3 °F 62.2 °F 30.1 in West 3 mph 7 mph 46 % 0 in
12:07 85.3 °F 59 °F 30.1 in South 2 mph 7 mph 41 % 0 in
12:12 85.6 °F 61.2 °F 30.1 in SW 5 mph 7 mph 44 % 0 in
12:17 85.6 °F 58.5 °F 30.1 in SW 3 mph 6 mph 40 % 0 in
12:27 86.7 °F 58.8 °F 30.1 in ESE 2 mph 6 mph 39 % 0 in
12:32 87.3 °F 59.4 °F 30.1 in Calm   5 mph 39 % 0 in
12:42 87.8 °F 59 °F 30.1 in Calm   5 mph 38 % 0 in
12:47 87.8 °F 59 °F 30.1 in South 1 mph 5 mph 38 % 0 in
12:52 87.6 °F 58.1 °F 30.1 in West 1 mph 6 mph 37 % 0 in
12:57 88.3 °F 57.9 °F 30.1 in Calm   6 mph 36 % 0 in
13:02 89.1 °F 58.6 °F 30.1 in Calm   6 mph 36 % 0 in
13:07 88.7 °F 59 °F 30.1 in SW 2 mph 4 mph 37 % 0 in
13:12 88.7 °F 58.3 °F 30.1 in Calm   5 mph 36 % 0 in
13:17 89.4 °F 59 °F 30.1 in SSE 1 mph 5 mph 36 % 0 in
13:22 90 °F 59.4 °F 30.1 in Calm   5 mph 36 % 0 in
13:27 90.1 °F 59.5 °F 30.1 in Calm   5 mph 36 % 0 in
13:32 89.6 °F 58.3 °F 30.1 in Calm   5 mph 35 % 0 in
13:37 89.4 °F 60.4 °F 30.1 in SE 2 mph 6 mph 38 % 0 in
13:42 90.3 °F 60.4 °F 30.1 in SSW 7 mph 7 mph 37 % 0 in
13:47 89.8 °F 60.8 °F 30.1 in SW 6 mph 10 mph 38 % 0 in
13:52 89.4 °F 59.7 °F 30.1 in SW 3 mph 10 mph 37 % 0 in
13:57 90 °F 58.6 °F 30.1 in East 1 mph 10 mph 35 % 0 in
14:02 90.7 °F 60.1 °F 30.1 in ESE 4 mph 7 mph 36 % 0 in
14:07 91 °F 58.8 °F 30.1 in Calm   7 mph 34 % 0 in
14:12 92.3 °F 59.9 °F 30.1 in Calm   6 mph 34 % 0 in
14:17 92.1 °F 62.8 °F 30.1 in SW 4 mph 6 mph 38 % 0 in
14:22 91 °F 59.5 °F 30.1 in WSW 7 mph 8 mph 35 % 0 in
14:27 90.3 °F 59.7 °F 30.1 in WSW 2 mph 8 mph 36 % 0 in
14:32 90.9 °F 60.3 °F 30 in SSW 2 mph 8 mph 36 % 0 in
14:37 91 °F 61.9 °F 30 in South 5 mph 7 mph 38 % 0 in
14:42 91.4 °F 63.7 °F 30 in SW 5 mph 6 mph 40 % 0 in
14:47 91.6 °F 59.2 °F 30 in SE 1 mph 6 mph 34 % 0 in
14:52 91.8 °F 61 °F 30 in ESE 4 mph 6 mph 36 % 0 in
14:57 92.1 °F 60.4 °F 30 in SE 2 mph 6 mph 35 % 0 in
15:02 92.1 °F 60.4 °F 30 in SW 1 mph 6 mph 35 % 0 in
15:12 92.7 °F 61 °F 30 in ESE 3 mph 5 mph 35 % 0 in
15:17 93 °F 60.4 °F 30 in ENE 3 mph 5 mph 34 % 0 in
15:22 93.6 °F 61 °F 30 in East 1 mph 10 mph 34 % 0 in
15:27 93.9 °F 61.3 °F 30 in SE 2 mph 10 mph 34 % 0 in
15:32 93.7 °F 62.8 °F 30 in South 5 mph 10 mph 36 % 0 in
15:37 93.2 °F 60.6 °F 30 in Calm   9 mph 34 % 0 in
15:42 93.9 °F 62.1 °F 30 in East 7 mph 8 mph 35 % 0 in
15:52 93.9 °F 60.4 °F 30 in ESE 6 mph 11 mph 33 % 0 in
15:57 94.1 °F 60.6 °F 30 in SE 6 mph 11 mph 33 % 0 in
16:02 94.3 °F 61.5 °F 30 in SE 5 mph 10 mph 34 % 0 in
16:07 93.9 °F 60.4 °F 30 in South 4 mph 10 mph 33 % 0 in
16:12 93.4 °F 59.9 °F 30 in SSE 4 mph 10 mph 33 % 0 in
16:17 92.8 °F 61.9 °F 30 in ENE 4 mph 10 mph 36 % 0 in
16:22 93 °F 59.7 °F 30 in SE 3 mph 10 mph 33 % 0 in
16:27 92.7 °F 60.3 °F 30 in South 3 mph 9 mph 34 % 0 in
16:32 91.8 °F 60.3 °F 30 in SSE 3 mph 9 mph 35 % 0 in
16:37 91.4 °F 59 °F 30 in SE 6 mph 8 mph 34 % 0 in
16:42 91.2 °F 59.7 °F 30 in SSE 2 mph 9 mph 35 % 0 in
16:47 91.2 °F 59.7 °F 30 in SSE 2 mph 9 mph 35 % 0 in
16:52 91.2 °F 59.7 °F 30 in ESE 4 mph 9 mph 35 % 0 in
16:57 91.2 °F 60.6 °F 30 in SSE 5 mph 9 mph 36 % 0 in
17:02 91.8 °F 60.3 °F 30 in South 2 mph 9 mph 35 % 0 in
17:07 92.1 °F 60.4 °F 30 in ESE 8 mph 9 mph 35 % 0 in
17:12 92.8 °F 61.9 °F 30 in South 3 mph 10 mph 36 % 0 in
17:17 93.6 °F 61 °F 30 in West 1 mph 10 mph 34 % 0 in
17:22 93.7 °F 60.3 °F 30 in ESE 2 mph 10 mph 33 % 0 in
17:27 93.7 °F 62.8 °F 30 in South 4 mph 10 mph 36 % 0 in
17:32 93.9 °F 63 °F 30 in South 4 mph 9 mph 36 % 0 in
17:42 93.2 °F 60.6 °F 30 in SSE 7 mph 10 mph 34 % 0 in
17:47 92.7 °F 61.9 °F 30 in SW 5 mph 10 mph 36 % 0 in
17:52 92.1 °F 61.3 °F 30 in SSE 2 mph 10 mph 36 % 0 in
17:57 91.6 °F 61.7 °F 30 in SSW 3 mph 10 mph 37 % 0 in
18:02 91.2 °F 61.3 °F 30 in SE 5 mph 8 mph 37 % 0 in
18:07 90.9 °F 61.7 °F 30 in SE 1 mph 10 mph 38 % 0 in
18:12 90.3 °F 61.3 °F 30 in SSE 4 mph 10 mph 38 % 0 in
18:17 90.1 °F 62.6 °F 30 in ESE 3 mph 11 mph 40 % 0 in
18:22 90.7 °F 63 °F 30 in SW 4 mph 11 mph 40 % 0 in
18:27 91.2 °F 63.5 °F 30 in SSE 3 mph 10 mph 40 % 0 in
18:32 91.4 °F 63 °F 30 in SW 5 mph 9 mph 39 % 0 in
18:42 90.7 °F 62.2 °F 30 in SSE 3 mph 11 mph 39 % 0 in
18:47 90.3 °F 62.8 °F 30 in SSE 7 mph 11 mph 40 % 0 in
18:52 90 °F 61 °F 30 in SSW 5 mph 11 mph 38 % 0 in
18:57 89.2 °F 62.4 °F 30 in SW 5 mph 11 mph 41 % 0 in
19:02 88.9 °F 62.1 °F 30 in SSW 4 mph 11 mph 41 % 0 in
19:07 88.7 °F 62.6 °F 30 in South 5 mph 10 mph 42 % 0 in
19:12 88.5 °F 62.4 °F 30 in SW 3 mph 8 mph 42 % 0 in
19:17 88.3 °F 63.7 °F 30 in SSW 4 mph 8 mph 44 % 0 in
19:22 88.3 °F 63.7 °F 30 in SSE 3 mph 8 mph 44 % 0 in
19:27 88.3 °F 63 °F 30 in SSE 2 mph 6 mph 43 % 0 in
19:32 88.2 °F 62.8 °F 30 in South 3 mph 6 mph 43 % 0 in
19:37 88.2 °F 62.8 °F 30 in South 2 mph 6 mph 43 % 0 in
19:42 88.2 °F 63.5 °F 30 in SSW 1 mph 6 mph 44 % 0 in
19:47 88.2 °F 63.5 °F 30 in SE 2 mph 6 mph 44 % 0 in
19:52 88 °F 64 °F 30 in SE 1 mph 5 mph 45 % 0 in
19:57 87.8 °F 64.4 °F 30 in SSE 1 mph 5 mph 46 % 0 in
20:02 87.6 °F 63.7 °F 30 in SSE 1 mph 5 mph 45 % 0 in
20:07 87.4 °F 62.8 °F 30 in ESE 2 mph 3 mph 44 % 0 in
20:12 87.4 °F 62.8 °F 30 in SE 3 mph 4 mph 44 % 0 in
20:17 87.1 °F 63.1 °F 30 in SW 1 mph 4 mph 45 % 0 in
20:22 86.7 °F 63.5 °F 30 in SSE 2 mph 5 mph 46 % 0 in
20:27 86.5 °F 62.6 °F 30 in SSE 1 mph 5 mph 45 % 0 in
20:32 86.4 °F 63.1 °F 30 in SE 1 mph 5 mph 46 % 0 in
20:37 86.2 °F 63 °F 30 in Calm   3 mph 46 % 0 in
20:42 85.8 °F 63.3 °F 30 in Calm   3 mph 47 % 0 in
20:47 85.3 °F 64 °F 30 in SSW 2 mph 3 mph 49 % 0 in
20:52 84.4 °F 63.1 °F 30 in SW 3 mph 5 mph 49 % 0 in
20:57 84 °F 62.8 °F 30 in SW 3 mph 5 mph 49 % 0 in
21:02 84 °F 62.2 °F 30 in SW 3 mph 4 mph 48 % 0 in
21:12 84.6 °F 62.8 °F 30 in West 5 mph 6 mph 48 % 0 in
21:17 84.7 °F 62.2 °F 30 in SW 3 mph 6 mph 47 % 0 in
21:22 84.9 °F 62.4 °F 30 in West 3 mph 10 mph 47 % 0 in
21:27 84.9 °F 61.9 °F 30 in SSW 3 mph 10 mph 46 % 0 in
21:32 84.7 °F 61.7 °F 30 in West 5 mph 10 mph 46 % 0 in
21:37 84.6 °F 62.1 °F 30 in WSW 3 mph 9 mph 47 % 0 in
21:42 84.6 °F 62.1 °F 30 in WSW 4 mph 11 mph 47 % 0 in
21:47 84.4 °F 61.9 °F 30 in WSW 4 mph 11 mph 47 % 0 in
21:52 84 °F 62.2 °F 30 in WSW 2 mph 11 mph 48 % 0 in
21:57 83.7 °F 62.4 °F 30 in WSW 1 mph 8 mph 49 % 0 in
22:02 83.5 °F 62.2 °F 30 in WSW 4 mph 8 mph 49 % 0 in
22:12 83.1 °F 63.1 °F 30 in SW 2 mph 7 mph 51 % 0 in
22:17 82.9 °F 63.5 °F 30 in SW 3 mph 10 mph 52 % 0 in
22:22 82.8 °F 63.9 °F 30 in WSW 3 mph 10 mph 53 % 0 in
22:27 82.6 °F 64.2 °F 30 in WSW 4 mph 10 mph 54 % 0 in
22:32 82.2 °F 63.9 °F 30.1 in SW 6 mph 9 mph 54 % 0 in
22:37 82 °F 64.2 °F 30.1 in WSW 5 mph 9 mph 55 % 0 in
22:42 81.9 °F 64.6 °F 30.1 in West 3 mph 9 mph 56 % 0 in
22:47 81.7 °F 64.4 °F 30.1 in SW 2 mph 8 mph 56 % 0 in
22:52 81.3 °F 64.6 °F 30.1 in South 2 mph 8 mph 57 % 0 in
22:57 81.1 °F 64.9 °F 30.1 in South 2 mph 5 mph 58 % 0 in
23:02 80.8 °F 65.1 °F 30.1 in SSW 1 mph 5 mph 59 % 0 in
23:07 80.2 °F 65.1 °F 30.1 in SW 1 mph 4 mph 60 % 0 in
23:12 79.9 °F 64.8 °F 30.1 in SSW 3 mph 3 mph 60 % 0 in
23:17 79.9 °F 64.8 °F 30.1 in WSW 1 mph 3 mph 60 % 0 in
23:22 79.9 °F 65.3 °F 30.1 in SSW 3 mph 4 mph 61 % 0 in
23:27 79.7 °F 65.1 °F 30.1 in SSW 1 mph 4 mph 61 % 0 in
23:32 79.5 °F 65.3 °F 30.1 in Calm   5 mph 62 % 0 in
23:37 79.3 °F 65.1 °F 30.1 in SSE 1 mph 6 mph 62 % 0 in
23:42 79.2 °F 65.5 °F 30.1 in Calm   6 mph 63 % 0 in
23:47 78.8 °F 65.1 °F 30.1 in Calm   4 mph 63 % 0 in
23:52 78.6 °F 64.9 °F 30.1 in Calm   3 mph 63 % 0 in
23:57 78.4 °F 65.3 °F 30.1 in Calm   2 mph 64 % 0 in
Meteo18
Compliments of Weather Underground - 4 mb

Script developed by  Jim McMurry - jmcmurry@mwt.net Adapted for the template by  Wim van der Kuil - Leuven-Template.eu

You find our weather info also at:

European Weather Network

Weather Underground

Equipment we use:

Weather-station
Davis Vue

Weather-program
Meteohub

Weather-server
Raspberry PI 2 B+

Provider
1 and 1

Davis Vue

Meteohub

Raspberry PI 2 B+

1 and 1